Time;durP1;ratioP1;P1;durP2;ratioP2;P2;SDS_P1;SDS_P2;PMS_P1;PMS_P2;Temp;Humidity;BMP_temperature;BMP_pressure;BME280_temperature;BME280_humidity;BME280_pressure;Samples;Min_cycle;Max_cycle;Signal;HPM_P1;HPM_P2
2022/03/01 00:02:16;;;;;;;14.32;7.90;;;4.70;92.80;;;;;;5034523;28;20028;-85
2022/03/01 00:04:41;;;;;;;15.43;8.13;;;4.60;92.70;;;;;;5039767;28;20028;-82
2022/03/01 00:07:07;;;;;;;13.30;7.85;;;6.40;93.50;;;;;;5034875;28;20021;-88
2022/03/01 00:09:34;;;;;;;15.52;8.82;;;4.60;93.20;;;;;;5039300;28;20116;-85
2022/03/01 00:11:59;;;;;;;21.08;8.88;;;4.60;93.50;;;;;;5051025;28;20060;-84
2022/03/01 00:14:25;;;;;;;21.33;8.48;;;4.60;94.00;;;;;;5038592;28;20029;-82
2022/03/01 00:16:51;;;;;;;15.88;8.38;;;4.50;94.40;;;;;;5030629;28;20037;-83
2022/03/01 00:19:16;;;;;;;13.43;7.60;;;4.50;94.70;;;;;;5037517;28;20044;-82
2022/03/01 00:21:43;;;;;;;13.88;8.07;;;4.50;95.10;;;;;;5036606;28;20036;-84
2022/03/01 00:24:09;;;;;;;18.23;8.45;;;4.40;95.40;;;;;;5034454;28;20021;-86
2022/03/01 00:26:35;;;;;;;13.27;7.68;;;4.40;95.60;;;;;;5031241;28;20029;-85
2022/03/01 00:29:00;;;;;;;16.73;9.13;;;4.30;95.80;;;;;;5032925;28;20036;-84
2022/03/01 00:31:26;;;;;;;13.80;7.80;;;4.30;96.00;;;;;;5050138;28;20044;-85
2022/03/01 00:33:51;;;;;;;16.85;9.10;;;4.30;95.80;;;;;;5040886;28;20128;-84
2022/03/01 00:36:17;;;;;;;14.93;8.82;;;4.30;95.90;;;;;;5037217;28;20466;-87
2022/03/01 00:38:43;;;;;;;17.50;9.00;;;4.30;96.10;;;;;;5053600;28;20025;-85
2022/03/01 00:41:08;;;;;;;14.93;7.88;;;4.30;96.40;;;;;;5032666;28;20026;-83
2022/03/01 00:43:34;;;;;;;12.95;7.63;;;4.20;96.40;;;;;;5052301;28;20036;-87
2022/03/01 00:46:00;;;;;;;16.75;8.68;;;4.20;96.10;;;;;;5051332;28;20149;-85
2022/03/01 00:48:25;;;;;;;14.95;8.20;;;4.20;96.20;;;;;;5036037;28;20036;-86
2022/03/01 00:50:51;;;;;;;17.10;8.80;;;4.20;96.70;;;;;;5036451;28;20021;-86
2022/03/01 00:53:17;;;;;;;13.35;7.80;;;4.20;96.70;;;;;;5035702;28;20033;-83
2022/03/01 00:55:42;;;;;;;15.55;7.68;;;4.10;96.90;;;;;;5041211;28;20116;-84
2022/03/01 00:58:08;;;;;;;14.27;8.32;;;4.10;97.00;;;;;;5041551;28;20051;-82
2022/03/01 01:00:34;;;;;;;13.60;8.00;;;4.10;97.20;;;;;;5039203;28;20591;-84
2022/03/01 01:03:01;;;;;;;16.10;8.40;;;4.10;97.70;;;;;;5053605;28;20055;-82
2022/03/01 01:05:27;;;;;;;12.82;7.18;;;6.40;98.70;;;;;;5048855;28;20024;-81
2022/03/01 01:07:52;;;;;;;16.35;7.88;;;4.00;98.00;;;;;;5031551;28;20037;-80
2022/03/01 01:10:19;;;;;;;16.73;8.45;;;3.90;98.00;;;;;;5049406;28;20390;-83
2022/03/01 01:12:45;;;;;;;17.63;9.27;;;3.90;98.30;;;;;;5038239;28;20470;-83
2022/03/01 01:15:13;;;;;;;16.65;8.40;;;3.90;98.80;;;;;;5036519;28;20035;-85
2022/03/01 01:17:39;;;;;;;15.45;8.48;;;5.50;99.60;;;;;;5045536;28;20032;-82
2022/03/01 01:20:06;;;;;;;17.80;8.50;;;5.40;99.70;;;;;;5031954;28;20097;-84
2022/03/01 01:22:41;;;;;;;15.80;9.13;;;3.80;99.30;;;;;;5025595;28;20045;-81
2022/03/01 01:25:19;;;;;;;16.08;9.02;;;3.70;99.60;;;;;;5033593;28;20025;-81
2022/03/01 01:27:48;;;;;;;18.20;8.93;;;3.70;99.80;;;;;;5029665;28;20099;-85
2022/03/01 01:30:16;;;;;;;15.90;8.65;;;3.70;99.90;;;;;;5034308;28;20029;-81
2022/03/01 01:32:42;;;;;;;17.13;8.73;;;3.70;99.90;;;;;;5033801;28;20032;-82
2022/03/01 01:35:10;;;;;;;14.80;8.60;;;3.70;99.90;;;;;;5034098;28;20025;-81
2022/03/01 01:37:36;;;;;;;17.52;9.15;;;3.60;99.90;;;;;;5042357;28;20131;-80
2022/03/01 01:40:05;;;;;;;15.38;8.52;;;3.80;99.90;;;;;;5038439;28;20083;-81
2022/03/01 01:42:30;;;;;;;16.65;8.10;;;3.60;99.90;;;;;;5038320;28;20114;-81
2022/03/01 01:44:56;;;;;;;15.75;8.05;;;3.60;99.90;;;;;;5046494;28;20108;-83
2022/03/01 01:47:22;;;;;;;16.45;8.82;;;3.60;99.90;;;;;;5034281;28;20149;-84
2022/03/01 01:49:47;;;;;;;14.75;8.48;;;3.50;99.90;;;;;;5030085;28;20371;-82
2022/03/01 01:52:13;;;;;;;15.65;8.52;;;3.50;99.90;;;;;;5034534;28;20032;-81
2022/03/01 01:54:40;;;;;;;14.30;8.38;;;3.50;99.90;;;;;;5050477;28;20037;-83
2022/03/01 01:57:17;;;;;;;14.65;7.38;;;3.50;99.90;;;;;;5054056;28;20032;-80
2022/03/01 01:59:43;;;;;;;23.40;9.43;;;3.40;99.90;;;;;;5033427;28;20047;-80
2022/03/01 02:02:18;;;;;;;17.05;9.07;;;3.40;99.90;;;;;;5031441;28;20029;-81
2022/03/01 02:04:44;;;;;;;17.60;9.15;;;3.40;99.90;;;;;;5049868;28;20097;-83
2022/03/01 02:07:11;;;;;;;16.13;8.85;;;3.30;99.90;;;;;;5031220;28;20025;-84
2022/03/01 02:09:36;;;;;;;15.63;8.82;;;3.30;99.90;;;;;;5051305;28;20029;-79
2022/03/01 02:12:03;;;;;;;16.92;8.77;;;3.30;99.90;;;;;;5032191;28;20564;-82
2022/03/01 02:14:33;;;;;;;15.10;8.85;;;3.30;99.90;;;;;;5033804;28;20040;-81
2022/03/01 02:17:01;;;;;;;16.23;9.05;;;3.20;99.90;;;;;;5031072;28;20029;-84
2022/03/01 02:19:27;;;;;;;15.60;8.60;;;3.20;99.90;;;;;;5034325;28;20119;-84
2022/03/01 02:21:56;;;;;;;16.10;9.07;;;3.20;99.90;;;;;;5049800;28;20037;-83
2022/03/01 02:24:25;;;;;;;17.70;8.70;;;3.20;99.90;;;;;;5057158;28;20092;-84
2022/03/01 02:26:55;;;;;;;16.38;8.10;;;3.20;99.90;;;;;;5049584;28;20047;-82
2022/03/01 02:29:21;;;;;;;15.52;8.35;;;3.20;99.90;;;;;;5046373;28;20371;-80
2022/03/01 02:31:47;;;;;;;16.85;8.30;;;3.20;99.90;;;;;;5032954;28;20032;-86
2022/03/01 02:34:13;;;;;;;14.32;8.63;;;3.10;99.90;;;;;;5031319;28;20033;-82
2022/03/01 02:36:39;;;;;;;15.57;8.68;;;3.10;99.90;;;;;;5048017;28;20029;-80
2022/03/01 02:39:04;;;;;;;13.73;8.27;;;3.10;99.90;;;;;;5053559;28;20075;-82
2022/03/01 02:41:30;;;;;;;14.43;8.13;;;3.70;99.90;;;;;;5028732;28;20030;-84
2022/03/01 02:43:56;;;;;;;17.42;9.57;;;3.10;99.90;;;;;;5028910;28;20080;-81
2022/03/01 02:46:22;;;;;;;16.67;8.73;;;3.00;99.90;;;;;;5031951;28;20055;-79
2022/03/01 02:48:48;;;;;;;16.98;9.10;;;3.00;99.90;;;;;;5033444;28;20498;-80
2022/03/01 02:51:14;;;;;;;15.43;9.07;;;3.00;99.90;;;;;;5052282;28;20064;-81
2022/03/01 02:53:39;;;;;;;17.67;8.70;;;3.00;99.90;;;;;;5036418;28;20068;-82
2022/03/01 02:56:05;;;;;;;18.35;9.00;;;2.90;99.90;;;;;;5030022;28;20032;-80
2022/03/01 02:58:31;;;;;;;18.15;9.10;;;2.90;99.90;;;;;;5043411;28;20085;-83
2022/03/01 03:00:57;;;;;;;16.38;9.25;;;2.90;99.90;;;;;;5028221;28;20449;-83
2022/03/01 03:03:22;;;;;;;17.63;9.55;;;3.30;99.90;;;;;;5028759;28;20026;-82
2022/03/01 03:05:48;;;;;;;18.58;9.10;;;3.40;99.90;;;;;;5031706;28;20025;-81
2022/03/01 03:08:13;;;;;;;16.70;8.95;;;2.80;99.90;;;;;;5033788;28;20048;-83
2022/03/01 03:10:39;;;;;;;18.27;8.85;;;2.80;99.90;;;;;;5049470;28;20033;-81
2022/03/01 03:13:05;;;;;;;17.63;8.65;;;2.80;99.90;;;;;;5035419;28;20147;-81
2022/03/01 03:15:31;;;;;;;15.18;8.50;;;2.80;99.90;;;;;;5036081;28;20025;-82
2022/03/01 03:17:58;;;;;;;18.83;9.23;;;2.80;99.90;;;;;;5040254;28;20025;-83
2022/03/01 03:20:24;;;;;;;16.98;8.90;;;2.80;99.90;;;;;;5035839;28;20056;-80
2022/03/01 03:22:50;;;;;;;16.77;8.88;;;;;;;;;;5031671;28;20060;-81
2022/03/01 03:25:16;;;;;;;17.55;9.00;;;2.80;99.90;;;;;;5036663;28;20053;-81
2022/03/01 03:27:41;;;;;;;17.42;8.90;;;2.80;99.90;;;;;;5029801;28;20040;-84
2022/03/01 03:30:08;;;;;;;17.00;9.25;;;2.80;99.90;;;;;;5034654;28;20021;-81
2022/03/01 03:32:35;;;;;;;17.63;9.13;;;2.70;99.90;;;;;;5032620;28;20056;-81
2022/03/01 03:35:01;;;;;;;15.35;9.43;;;2.80;99.90;;;;;;5041710;28;20033;-88
2022/03/01 03:37:26;;;;;;;16.20;8.55;;;2.80;99.90;;;;;;5050493;28;20033;-86
2022/03/01 03:39:52;;;;;;;16.63;9.07;;;2.80;99.90;;;;;;5062333;28;20017;-85
2022/03/01 03:42:19;;;;;;;17.02;9.43;;;2.80;99.90;;;;;;5047818;28;20044;-85
2022/03/01 03:44:45;;;;;;;17.13;8.50;;;2.80;99.90;;;;;;5046828;28;20022;-84
2022/03/01 03:47:11;;;;;;;16.75;8.57;;;2.70;99.90;;;;;;5034831;28;20415;-81
2022/03/01 03:49:37;;;;;;;16.95;8.45;;;2.80;99.90;;;;;;5054031;28;20115;-82
2022/03/01 03:52:07;;;;;;;15.73;8.25;;;2.80;99.90;;;;;;5049942;28;20123;-82
2022/03/01 03:54:33;;;;;;;17.37;8.10;;;2.80;99.90;;;;;;5051062;28;20102;-83
2022/03/01 03:56:59;;;;;;;14.82;8.15;;;2.90;99.90;;;;;;5042834;28;20315;-82
2022/03/01 03:59:25;;;;;;;15.05;8.82;;;2.70;99.90;;;;;;5051979;28;20405;-83
2022/03/01 04:01:51;;;;;;;17.88;8.75;;;2.80;99.90;;;;;;5053736;28;20048;-84
2022/03/01 04:04:17;;;;;;;15.52;8.02;;;2.50;99.90;;;;;;5037143;28;20033;-81
2022/03/01 04:06:43;;;;;;;16.25;8.18;;;2.70;99.90;;;;;;5035903;28;20025;-82
2022/03/01 04:09:09;;;;;;;16.33;8.77;;;4.60;99.90;;;;;;5029533;28;20021;-84
2022/03/01 04:11:35;;;;;;;14.77;8.15;;;2.70;99.90;;;;;;5044244;28;20044;-81
2022/03/01 04:14:01;;;;;;;16.52;8.00;;;2.70;99.90;;;;;;5042460;28;20032;-83
2022/03/01 04:16:30;;;;;;;12.88;7.45;;;2.60;99.90;;;;;;5054535;28;20032;-83
2022/03/01 04:18:56;;;;;;;15.25;8.18;;;;;;;;;;5052724;28;20475;-81
2022/03/01 04:21:22;;;;;;;14.70;7.93;;;2.60;99.90;;;;;;5028673;28;20117;-83
2022/03/01 04:23:49;;;;;;;13.80;7.70;;;2.70;99.90;;;;;;5053837;28;20021;-80
2022/03/01 04:26:15;;;;;;;15.50;7.63;;;2.70;99.90;;;;;;5037853;28;20040;-83
2022/03/01 04:28:41;;;;;;;15.85;8.30;;;2.70;99.90;;;;;;5041132;28;20029;-83
2022/03/01 04:31:07;;;;;;;14.02;7.97;;;2.70;99.90;;;;;;5040265;28;20017;-81
2022/03/01 04:33:33;;;;;;;16.00;8.40;;;2.40;99.90;;;;;;5044558;28;20056;-80
2022/03/01 04:36:02;;;;;;;13.50;8.13;;;2.50;99.90;;;;;;5037508;28;20112;-81
2022/03/01 04:38:28;;;;;;;16.33;8.38;;;3.90;99.90;;;;;;5050907;28;20030;-83
2022/03/01 04:40:54;;;;;;;17.77;8.02;;;2.20;99.90;;;;;;5035274;28;20029;-84
2022/03/01 04:43:20;;;;;;;16.30;8.88;;;2.20;99.90;;;;;;5021901;28;20124;-84
2022/03/01 04:45:46;;;;;;;14.60;8.75;;;;;;;;;;5030169;28;20034;-84
2022/03/01 04:48:12;;;;;;;18.85;9.07;;;2.20;99.90;;;;;;5035521;28;20039;-80
2022/03/01 04:50:38;;;;;;;16.85;8.52;;;2.20;99.90;;;;;;5034203;28;20037;-84
2022/03/01 04:53:05;;;;;;;14.48;8.60;;;3.10;99.90;;;;;;5056277;28;20099;-83
2022/03/01 04:55:31;;;;;;;14.13;8.27;;;2.20;99.90;;;;;;5036305;28;20060;-83
2022/03/01 04:57:57;;;;;;;15.98;8.38;;;;;;;;;;5030024;28;20032;-80
2022/03/01 05:00:23;;;;;;;16.15;8.00;;;2.30;99.90;;;;;;5033536;28;20057;-84
2022/03/01 05:02:49;;;;;;;19.00;9.18;;;2.30;99.90;;;;;;5037678;28;20028;-82
2022/03/01 05:05:15;;;;;;;15.95;8.32;;;2.30;99.90;;;;;;5030020;28;20030;-82
2022/03/01 05:07:44;;;;;;;12.95;7.45;;;2.90;99.90;;;;;;5041474;28;20104;-84
2022/03/01 05:10:12;;;;;;;14.40;8.25;;;2.40;99.90;;;;;;5033108;28;20089;-84
2022/03/01 05:12:48;;;;;;;14.75;8.20;;;4.60;99.90;;;;;;5035084;28;20040;-83
2022/03/01 05:15:14;;;;;;;14.25;7.75;;;2.40;99.90;;;;;;5036424;28;20093;-80
2022/03/01 05:17:40;;;;;;;15.57;8.18;;;2.40;99.90;;;;;;5032699;28;20228;-79
2022/03/01 05:20:08;;;;;;;15.07;7.82;;;2.50;99.90;;;;;;5055172;28;20033;-83
2022/03/01 05:22:34;;;;;;;16.30;8.70;;;2.50;99.90;;;;;;5055441;28;20454;-85
2022/03/01 05:25:01;;;;;;;16.13;7.97;;;3.70;99.90;;;;;;5040883;28;20029;-85
2022/03/01 05:27:27;;;;;;;14.25;8.30;;;;;;;;;;5036919;28;20088;-82
2022/03/01 05:29:53;;;;;;;14.98;8.50;;;2.30;99.90;;;;;;5042132;28;20064;-82
2022/03/01 05:32:18;;;;;;;15.35;8.57;;;2.30;99.90;;;;;;5043580;28;20403;-83
2022/03/01 05:34:44;;;;;;;15.68;8.25;;;1.00;99.90;;;;;;5045830;28;20429;-82
2022/03/01 05:37:10;;;;;;;15.02;8.57;;;2.40;99.90;;;;;;5044061;28;20036;-86
2022/03/01 05:39:36;;;;;;;14.95;8.20;;;2.30;99.90;;;;;;5053693;28;20525;-85
2022/03/01 05:42:02;;;;;;;16.63;7.85;;;3.40;99.90;;;;;;5053333;28;20323;-82
2022/03/01 05:44:28;;;;;;;15.20;7.90;;;2.30;99.90;;;;;;5052423;28;20043;-82
2022/03/01 05:46:53;;;;;;;12.82;7.10;;;2.20;99.90;;;;;;5034974;28;20032;-80
2022/03/01 05:49:19;;;;;;;16.15;7.72;;;3.70;99.90;;;;;;5052147;28;20021;-83
2022/03/01 05:51:47;;;;;;;18.35;8.40;;;2.30;99.90;;;;;;5036853;28;20553;-81
2022/03/01 05:54:13;;;;;;;17.48;8.13;;;3.60;99.90;;;;;;5038706;28;20025;-84
2022/03/01 05:56:38;;;;;;;16.88;8.98;;;2.70;99.90;;;;;;5051096;28;20036;-83
2022/03/01 05:59:04;;;;;;;14.77;8.30;;;2.00;99.90;;;;;;5054051;28;20025;-82
2022/03/01 06:01:30;;;;;;;13.73;8.23;;;;;;;;;;5033022;28;20124;-81
2022/03/01 06:03:56;;;;;;;17.42;8.98;;;1.80;99.90;;;;;;5031801;28;20033;-80
2022/03/01 06:06:22;;;;;;;14.48;8.20;;;1.40;99.90;;;;;;5052557;28;20037;-80
2022/03/01 06:08:48;;;;;;;16.50;8.60;;;;;;;;;;5047006;28;20026;-81
2022/03/01 06:11:13;;;;;;;15.52;7.85;;;1.90;99.90;;;;;;5031356;28;20542;-81
2022/03/01 06:13:40;;;;;;;15.80;7.85;;;;;;;;;;5046117;28;20033;-82
2022/03/01 06:16:06;;;;;;;14.00;7.88;;;1.90;99.90;;;;;;5035298;28;20096;-83
2022/03/01 06:18:32;;;;;;;19.10;8.95;;;1.10;99.90;;;;;;5034768;28;20029;-83
2022/03/01 06:20:59;;;;;;;21.23;8.23;;;1.90;99.90;;;;;;5048719;28;20036;-84
2022/03/01 06:23:25;;;;;;;17.02;7.78;;;;;;;;;;5047336;28;20040;-85
2022/03/01 06:25:51;;;;;;;15.85;7.70;;;2.00;99.90;;;;;;5046414;28;20471;-83
2022/03/01 06:28:17;;;;;;;18.65;8.43;;;2.00;99.90;;;;;;5035147;28;20078;-82
2022/03/01 06:30:42;;;;;;;16.17;7.63;;;2.00;99.90;;;;;;5041596;28;20085;-83
2022/03/01 06:33:08;;;;;;;17.25;8.23;;;5.10;99.90;;;;;;5036297;28;20045;-80
2022/03/01 06:35:34;;;;;;;15.43;8.35;;;2.10;99.90;;;;;;5050551;28;20029;-84
2022/03/01 06:38:00;;;;;;;16.92;8.90;;;2.10;99.90;;;;;;5026375;28;20033;-80
2022/03/01 06:40:28;;;;;;;16.38;8.25;;;2.10;99.90;;;;;;5038315;28;20033;-84
2022/03/01 06:42:54;;;;;;;15.68;8.38;;;3.80;99.90;;;;;;5036691;28;20111;-86
2022/03/01 06:45:20;;;;;;;19.33;9.38;;;2.10;99.90;;;;;;5040219;28;20113;-80
2022/03/01 06:47:46;;;;;;;18.42;7.90;;;;;;;;;;5048649;28;20394;-84
2022/03/01 06:50:12;;;;;;;14.65;7.78;;;2.10;99.90;;;;;;5043936;28;20037;-81
2022/03/01 06:52:37;;;;;;;15.15;7.40;;;2.10;99.90;;;;;;5034967;28;20125;-80
2022/03/01 06:55:05;;;;;;;16.15;7.45;;;4.40;99.90;;;;;;5042096;28;20035;-80
2022/03/01 06:57:31;;;;;;;19.48;8.30;;;;;;;;;;5034405;28;20026;-81
2022/03/01 06:59:57;;;;;;;19.23;9.27;;;;;;;;;;5033418;28;20033;-80
2022/03/01 07:02:26;;;;;;;15.25;7.57;;;;;;;;;;5037601;28;20033;-82
2022/03/01 07:04:52;;;;;;;12.90;7.38;;;;;;;;;;5047258;28;20121;-81
2022/03/01 07:07:18;;;;;;;15.38;7.53;;;;;;;;;;5033101;28;20052;-81
2022/03/01 07:09:44;;;;;;;13.38;7.32;;;;;;;;;;5046458;28;20511;-79
2022/03/01 07:12:10;;;;;;;14.68;7.95;;;;;;;;;;5036554;28;20536;-84
2022/03/01 07:14:36;;;;;;;17.10;7.95;;;2.60;99.90;;;;;;5054951;28;20037;-84
2022/03/01 07:17:02;;;;;;;14.48;7.45;;;2.60;99.90;;;;;;5030087;28;20036;-82
2022/03/01 07:19:28;;;;;;;14.82;7.53;;;2.60;99.90;;;;;;5036784;28;20029;-81
2022/03/01 07:21:53;;;;;;;19.30;9.30;;;2.60;99.90;;;;;;5034639;28;20498;-81
2022/03/01 07:24:19;;;;;;;16.83;8.05;;;2.60;99.90;;;;;;5036633;28;20028;-82
2022/03/01 07:26:45;;;;;;;31.10;10.25;;;2.70;99.90;;;;;;5039843;28;20033;-83
2022/03/01 07:29:10;;;;;;;19.48;8.32;;;2.70;99.90;;;;;;5049434;28;20036;-80
2022/03/01 07:31:36;;;;;;;14.30;7.50;;;2.80;99.90;;;;;;5046419;28;20043;-81
2022/03/01 07:34:03;;;;;;;15.77;8.00;;;2.40;99.90;;;;;;5057180;28;20053;-80
2022/03/01 07:36:29;;;;;;;15.70;7.22;;;2.90;99.90;;;;;;5047583;28;20040;-83
2022/03/01 07:38:55;;;;;;;14.65;6.90;;;3.00;99.90;;;;;;5048908;28;20037;-85
2022/03/01 07:41:21;;;;;;;15.40;6.97;;;;;;;;;;5045613;28;20025;-79
2022/03/01 07:43:47;;;;;;;15.38;8.02;;;3.10;99.90;;;;;;5050700;28;20195;-83
2022/03/01 07:46:13;;;;;;;16.63;9.02;;;2.80;99.70;;;;;;5050370;28;20028;-82
2022/03/01 07:48:43;;;;;;;15.63;7.50;;;3.10;99.00;;;;;;5050328;28;20113;-87
2022/03/01 07:51:09;;;;;;;17.00;7.18;;;3.20;98.90;;;;;;5043466;28;20017;-81
2022/03/01 07:53:35;;;;;;;14.55;7.28;;;5.20;99.80;;;;;;5044641;28;20055;-81
2022/03/01 07:56:01;;;;;;;14.40;6.95;;;;;;;;;;5039938;28;20056;-87
2022/03/01 07:58:27;;;;;;;16.83;7.57;;;3.50;98.00;;;;;;5053250;28;20057;-82
2022/03/01 08:00:52;;;;;;;13.35;7.60;;;3.60;98.30;;;;;;5062068;28;20037;-81
2022/03/01 08:03:18;;;;;;;15.85;8.02;;;3.70;97.20;;;;;;5046693;28;20118;-85
2022/03/01 08:05:45;;;;;;;15.07;7.85;;;4.10;97.10;;;;;;5060634;28;20036;-84
2022/03/01 08:08:11;;;;;;;14.38;7.50;;;3.60;96.60;;;;;;5049084;28;20029;-82
2022/03/01 08:10:37;;;;;;;13.38;7.15;;;;;;;;;;5056859;28;20037;-83
2022/03/01 08:13:03;;;;;;;15.60;7.38;;;;;;;;;;5056650;28;20982;-82
2022/03/01 08:15:30;;;;;;;14.07;7.03;;;;;;;;;;5057294;28;20024;-82
2022/03/01 08:17:57;;;;;;;13.70;6.97;;;3.90;95.50;;;;;;5034314;28;20049;-78
2022/03/01 08:20:24;;;;;;;15.23;7.13;;;4.00;94.70;;;;;;5043142;28;20029;-78
2022/03/01 08:22:50;;;;;;;13.80;6.90;;;4.20;93.90;;;;;;5046612;28;20033;-82
2022/03/01 08:25:16;;;;;;;18.45;7.18;;;4.10;93.00;;;;;;5038977;28;20028;-80
2022/03/01 08:27:42;;;;;;;14.65;7.53;;;5.80;93.50;;;;;;5037648;28;20064;-82
2022/03/01 08:30:08;;;;;;;18.25;7.57;;;6.50;93.00;;;;;;5046408;28;20216;-82
2022/03/01 08:32:34;;;;;;;16.25;7.07;;;5.10;91.50;;;;;;5025164;28;20695;-81
2022/03/01 08:35:00;;;;;;;12.80;7.20;;;;;;;;;;5047626;28;20033;-81
2022/03/01 08:37:26;;;;;;;14.50;7.50;;;5.20;89.40;;;;;;5035831;28;20088;-83
2022/03/01 08:39:52;;;;;;;12.13;7.10;;;5.20;89.90;;;;;;5025343;28;20029;-80
2022/03/01 08:42:18;;;;;;;16.80;7.82;;;5.50;87.30;;;;;;5028417;28;20402;-82
2022/03/01 08:44:44;;;;;;;14.18;6.95;;;5.60;85.30;;;;;;5031660;28;20083;-80
2022/03/01 08:47:10;;;;;;;16.23;7.28;;;6.40;85.20;;;;;;5028714;28;20040;-84
2022/03/01 08:49:36;;;;;;;17.02;7.30;;;5.60;85.70;;;;;;5023524;28;20029;-83
2022/03/01 08:52:02;;;;;;;15.65;7.82;;;5.70;86.10;;;;;;5046009;28;20119;-83
2022/03/01 08:54:27;;;;;;;14.13;7.32;;;5.80;84.10;;;;;;5048613;28;20033;-80
2022/03/01 08:56:53;;;;;;;15.40;7.97;;;5.80;81.70;;;;;;5023865;28;20064;-81
2022/03/01 08:59:19;;;;;;;14.70;7.05;;;7.50;84.70;;;;;;5041983;28;20076;-81
2022/03/01 09:01:44;;;;;;;14.18;7.63;;;5.90;81.10;;;;;;5029069;28;20763;-81
2022/03/01 09:04:10;;;;;;;14.48;7.25;;;6.10;80.00;;;;;;5028507;28;20025;-80
2022/03/01 09:06:36;;;;;;;13.68;7.53;;;6.00;78.50;;;;;;5031256;28;20033;-81
2022/03/01 09:09:02;;;;;;;15.55;7.72;;;8.10;79.50;;;;;;5031248;28;20028;-81
2022/03/01 09:11:28;;;;;;;13.75;7.72;;;;;;;;;;5033386;28;20035;-83
2022/03/01 09:13:54;;;;;;;13.98;7.63;;;6.10;79.90;;;;;;5033756;28;20025;-84
2022/03/01 09:16:20;;;;;;;15.73;7.20;;;5.90;80.50;;;;;;5033179;28;20090;-85
2022/03/01 09:18:46;;;;;;;15.75;7.05;;;;;;;;;;5045476;28;20884;-81
2022/03/01 09:21:11;;;;;;;19.70;6.88;;;6.10;79.10;;;;;;5026608;28;20110;-81
2022/03/01 09:23:37;;;;;;;16.65;7.70;;;6.10;79.40;;;;;;5029325;28;20171;-82
2022/03/01 09:26:03;;;;;;;15.40;7.72;;;7.70;79.30;;;;;;5025585;28;20025;-81
2022/03/01 09:28:28;;;;;;;14.38;8.00;;;6.00;79.20;;;;;;5042599;28;20497;-81
2022/03/01 09:30:54;;;;;;;15.00;7.35;;;6.10;79.00;;;;;;5035901;28;20028;-79
2022/03/01 09:33:20;;;;;;;15.18;7.22;;;6.60;79.30;;;;;;5037119;28;20021;-81
2022/03/01 09:35:47;;;;;;;14.13;7.93;;;7.10;79.60;;;;;;5035155;28;20017;-83
2022/03/01 09:38:13;;;;;;;16.27;7.93;;;6.00;79.40;;;;;;5049398;28;20025;-83
2022/03/01 09:40:38;;;;;;;12.93;7.28;;;6.10;78.80;;;;;;5030619;28;20082;-83
2022/03/01 09:43:04;;;;;;;15.90;6.80;;;6.30;78.50;;;;;;5029267;28;20125;-79
2022/03/01 09:45:30;;;;;;;16.77;7.47;;;6.40;77.40;;;;;;5038086;28;20018;-81
2022/03/01 09:47:56;;;;;;;16.15;7.85;;;8.30;77.10;;;;;;5038490;28;20032;-83
2022/03/01 09:50:27;;;;;;;15.43;7.40;;;6.70;74.80;;;;;;5042514;28;20043;-82
2022/03/01 09:53:00;;;;;;;16.33;7.55;;;6.70;74.80;;;;;;5040758;28;20029;-81
2022/03/01 09:55:26;;;;;;;14.75;7.38;;;6.80;74.40;;;;;;5026545;28;20055;-82
2022/03/01 09:57:53;;;;;;;16.50;7.78;;;7.00;74.50;;;;;;5045975;28;20029;-82
2022/03/01 10:00:18;;;;;;;14.40;8.07;;;7.00;73.20;;;;;;5025029;28;20037;-82
2022/03/01 10:02:45;;;;;;;13.38;7.72;;;7.10;73.50;;;;;;5023030;28;20021;-83
2022/03/01 10:05:13;;;;;;;17.58;7.95;;;7.30;72.30;;;;;;5033383;28;20024;-80
2022/03/01 10:07:48;;;;;;;16.20;7.38;;;7.30;70.20;;;;;;5046804;28;20025;-81
2022/03/01 10:10:16;;;;;;;12.68;7.68;;;7.10;72.10;;;;;;5026255;28;20021;-83
2022/03/01 10:12:50;;;;;;;17.30;7.45;;;7.80;70.70;;;;;;5033931;28;20029;-84
2022/03/01 10:15:18;;;;;;;16.35;7.63;;;7.30;70.30;;;;;;5028054;28;20025;-81
2022/03/01 10:17:45;;;;;;;19.13;7.82;;;7.00;71.10;;;;;;5020739;28;20410;-78
2022/03/01 10:20:18;;;;;;;13.75;7.45;;;7.00;71.50;;;;;;5026274;28;20028;-82
2022/03/01 10:22:44;;;;;;;15.10;8.07;;;6.90;70.60;;;;;;5040620;28;20036;-80
2022/03/01 10:25:11;;;;;;;13.82;7.18;;;7.10;70.90;;;;;;5029812;28;20026;-82
2022/03/01 10:27:37;;;;;;;12.88;7.53;;;7.20;69.40;;;;;;5044887;28;20021;-83
2022/03/01 10:30:04;;;;;;;13.50;7.43;;;8.70;68.50;;;;;;5028882;28;20033;-80
2022/03/01 10:32:31;;;;;;;17.42;7.60;;;8.00;66.70;;;;;;5026706;28;20124;-81
2022/03/01 10:34:58;;;;;;;13.30;7.15;;;9.60;66.20;;;;;;5027710;28;20025;-83
2022/03/01 10:37:29;;;;;;;16.45;7.75;;;7.90;67.00;;;;;;5037538;28;20470;-84
2022/03/01 10:40:15;;;;;;;12.48;6.57;;;7.90;67.50;;;;;;5027594;28;20030;-82
2022/03/01 10:42:42;;;;;;;14.32;6.88;;;7.80;65.90;;;;;;5033993;28;20034;-83
2022/03/01 10:45:10;;;;;;;24.58;7.88;;;8.00;65.10;;;;;;5046467;28;20025;-84
2022/03/01 10:47:37;;;;;;;12.15;6.85;;;8.10;63.70;;;;;;5135983;23;20036;-81
2022/03/01 10:50:11;;;;;;;13.77;6.93;;;8.40;64.70;;;;;;5083592;22;20143;-79
2022/03/01 10:52:41;;;;;;;13.55;7.72;;;8.20;66.70;;;;;;5064477;28;20060;-78
2022/03/01 10:55:23;;;;;;;12.18;7.03;;;10.10;64.60;;;;;;5073802;28;20024;-80
2022/03/01 10:58:16;;;;;;;13.57;7.28;;;8.30;64.00;;;;;;5066877;28;20050;-80
2022/03/01 11:00:42;;;;;;;14.38;7.05;;;8.60;65.40;;;;;;5053710;28;20040;-79
2022/03/01 11:03:11;;;;;;;13.65;7.85;;;8.90;65.40;;;;;;5054028;28;20044;-78
2022/03/01 11:05:38;;;;;;;17.08;7.68;;;8.90;64.40;;;;;;5059789;28;21852;-78
2022/03/01 11:08:09;;;;;;;16.60;8.18;;;9.00;62.80;;;;;;5054370;28;20495;-78
2022/03/01 11:10:38;;;;;;;13.73;7.30;;;8.80;63.10;;;;;;5061593;28;20016;-79
2022/03/01 11:13:06;;;;;;;13.57;7.40;;;9.10;63.10;;;;;;5059287;28;20119;-79
2022/03/01 11:15:53;;;;;;;12.40;7.13;;;9.20;62.10;;;;;;5057913;28;20046;-77
2022/03/01 11:18:53;;;;;;;14.60;7.88;;;9.20;61.30;;;;;;5048731;28;20035;-77
2022/03/01 11:21:21;;;;;;;;;;;7.80;60.00;;;;;;5059708;28;20023;-80
2022/03/01 11:23:48;;;;;;;12.60;7.72;;;9.10;61.40;;;;;;5066402;28;19912;-79
2022/03/01 11:26:18;;;;;;;12.23;6.93;;;9.20;62.30;;;;;;5071168;28;20481;-78
2022/03/01 11:28:57;;;;;;;12.88;7.50;;;9.20;62.00;;;;;;5069571;28;20029;-78
2022/03/01 11:31:36;;;;;;;15.13;7.43;;;9.30;61.40;;;;;;5078800;28;20538;-79
2022/03/01 11:34:11;;;;;;;16.30;7.55;;;9.50;61.50;;;;;;5057546;28;20475;-78
2022/03/01 11:36:37;;;;;;;14.10;7.25;;;9.50;61.00;;;;;;5051078;28;20041;-78
2022/03/01 11:39:15;;;;;;;15.13;7.90;;;9.50;60.20;;;;;;5050741;28;20024;-78
2022/03/01 11:41:52;;;;;;;15.70;7.53;;;10.60;61.30;;;;;;5047608;28;20091;-79
2022/03/01 11:44:20;;;;;;;12.30;6.70;;;9.10;58.50;;;;;;5066747;28;20089;-78
2022/03/01 11:46:48;;;;;;;13.52;6.93;;;8.90;58.80;;;;;;5054780;28;20012;-79
2022/03/01 11:49:17;;;;;;;11.90;6.65;;;8.70;60.10;;;;;;5062715;28;20469;-77
2022/03/01 11:51:58;;;;;;;14.07;6.85;;;9.00;58.40;;;;;;5070360;28;20036;-80
2022/03/01 11:54:29;;;;;;;13.40;7.78;;;9.30;58.70;;;;;;5069684;28;20485;-77
2022/03/01 11:56:57;;;;;;;13.07;7.20;;;9.40;58.20;;;;;;5067386;28;20024;-78
2022/03/01 11:59:23;;;;;;;11.88;7.05;;;9.80;58.40;;;;;;5038019;28;20020;-80
2022/03/01 12:01:52;;;;;;;13.05;6.85;;;9.30;57.50;;;;;;5045540;28;20029;-78
2022/03/01 12:04:27;;;;;;;10.80;6.93;;;9.40;58.00;;;;;;5069000;28;20097;-80
2022/03/01 12:07:00;;;;;;;13.82;6.28;;;9.40;57.30;;;;;;5056085;28;20461;-79
2022/03/01 12:09:27;;;;;;;10.57;6.38;;;9.50;56.70;;;;;;5059738;28;20085;-78
2022/03/01 12:12:05;;;;;;;12.00;6.38;;;9.70;55.60;;;;;;5053344;28;20036;-78
2022/03/01 12:14:38;;;;;;;12.93;6.28;;;9.80;56.00;;;;;;5047264;28;20250;-78
2022/03/01 12:17:16;;;;;;;12.85;6.88;;;9.00;55.60;;;;;;5069468;28;20054;-78
2022/03/01 12:19:42;;;;;;;11.20;6.10;;;10.20;55.90;;;;;;5054363;28;20035;-78
2022/03/01 12:22:08;;;;;;;11.27;7.00;;;10.20;53.90;;;;;;5058112;28;20029;-78
2022/03/01 12:24:33;;;;;;;11.98;6.45;;;10.00;53.50;;;;;;5058647;28;20025;-78
2022/03/01 12:27:02;;;;;;;11.60;6.95;;;10.10;53.40;;;;;;5071682;28;20040;-78
2022/03/01 12:29:34;;;;;;;11.20;6.35;;;10.20;52.00;;;;;;5057737;28;20024;-78
2022/03/01 12:32:16;;;;;;;;;;;;;;;;;;;;;
2022/03/01 12:34:44;;;;;;;10.60;6.00;;;9.90;52.40;;;;;;5074938;28;20108;-79
2022/03/01 12:37:14;;;;;;;10.57;6.00;;;10.00;50.70;;;;;;5075644;28;20029;-78
2022/03/01 12:39:40;;;;;;;10.55;5.60;;;10.10;50.50;;;;;;5058710;28;20033;-78
2022/03/01 12:42:08;;;;;;;10.38;5.93;;;10.20;49.90;;;;;;5049624;28;20067;-82
2022/03/01 12:44:34;;;;;;;8.90;5.03;;;10.30;49.30;;;;;;5052071;28;20017;-79
2022/03/01 12:47:08;;;;;;;9.30;5.40;;;10.30;48.10;;;;;;5072929;28;20373;-77
2022/03/01 12:49:36;;;;;;;8.40;5.15;;;10.30;48.00;;;;;;5077759;28;20024;-77
2022/03/01 12:52:03;;;;;;;11.00;5.70;;;10.40;49.10;;;;;;5075620;28;20020;-80
2022/03/01 12:54:29;;;;;;;11.20;5.80;;;10.30;49.80;;;;;;5055042;28;20041;-80
2022/03/01 12:56:58;;;;;;;10.95;5.85;;;10.40;50.60;;;;;;5057159;28;20037;-79